Latest Weather Observations for Swan Hill

IDV60801

Issued at 10:32 pm EST Wednesday 29 June 2016 (issued every 30 minutes, with the page automatically refreshed every 10 minutes)

About weather observations | Map of weather stations | Latest weather observations for VIC | Other Formats
Station Details ID: 077094 Name: SWAN HILL AERODROME Lat: -35.38 Lon: 143.54 Height: 71.0 m
Data from the previous 72 hours. | See also: Recent months at Swan Hill
Date/Time
EST
Temp
°C
App
Temp
°C
Dew
Point
°C
Rel
Hum
%
Delta-T
°C
Wind Press
QNH
hPa
Press
MSL
hPa
Rain since
9am
mm
Dir  Spd
km/h
Gust
km/h
Spd
kts
Gust
kts
29/10:30pm 7.8 2.7 3.3 73 1.9 N 19 24 10 13 1020.8 1020.9 0.0
29/10:00pm 8.2 3.0 3.3 71 2.1 NNE 20 28 11 15 1021.0 1021.1 0.0
29/09:30pm 8.5 3.3 3.4 70 2.2 NNE 20 30 11 16 1021.3 1021.4 0.0
29/09:00pm 8.6 3.6 3.4 70 2.2 NNE 19 28 10 15 1021.4 1021.5 0.0
29/08:30pm 8.5 3.3 3.6 71 2.1 NNE 20 28 11 15 1021.6 1021.7 0.0
29/08:00pm 8.8 3.2 3.4 69 2.3 NNE 22 28 12 15 1021.6 1021.7 0.0
29/07:30pm 9.1 3.9 3.7 69 2.4 NNE 20 24 11 13 1021.9 1022.0 0.0
29/07:00pm 9.2 4.0 3.6 68 2.4 NNE 20 24 11 13 1022.1 1022.2 0.0
29/06:30pm 8.8 4.5 3.0 67 2.5 NNE 15 19 8 10 1022.0 1022.1 0.0
29/06:00pm 10.3 5.6 3.3 62 3.0 NNE 17 22 9 12 1022.1 1022.2 0.0
29/05:30pm 11.0 6.4 3.5 60 3.3 NNE 17 22 9 12 1022.2 1022.3 0.0
29/05:00pm 12.1 7.4 3.3 55 3.9 NNE 17 22 9 12 1022.6 1022.7 0.0
29/04:30pm 12.8 7.6 3.5 53 4.2 NNE 20 32 11 17 1023.1 1023.2 0.0
29/04:00pm 13.8 8.6 3.3 49 4.7 NNE 20 28 11 15 1023.4 1023.5 0.0
29/03:30pm 13.5 7.9 3.6 51 4.5 N 22 28 12 15 1023.8 1023.9 0.0
29/03:00pm 13.5 8.3 3.8 52 4.4 N 20 26 11 14 1024.0 1024.1 0.0
29/02:30pm 14.2 7.9 3.9 50 4.7 N 26 33 14 18 1024.3 1024.4 0.0
29/02:00pm 13.6 6.9 3.7 51 4.5 N 28 35 15 19 1024.7 1024.8 0.0
29/01:30pm 13.8 6.5 4.7 54 4.2 N 32 39 17 21 1025.2 1025.3 0.0
29/01:00pm 13.8 7.2 4.4 53 4.3 N 28 35 15 19 1025.7 1025.8 0.0
29/12:30pm 13.3 8.4 5.0 57 3.9 N 20 26 11 14 1026.4 1026.5 0.0
29/12:00pm 12.5 7.5 4.7 59 3.6 N 20 28 11 15 1027.0 1027.1 0.0
29/11:30am 12.1 7.1 4.8 61 3.3 NNW 20 24 11 13 1027.7 1027.8 0.0
29/11:00am 11.0 6.6 4.7 65 2.8 N 17 22 9 12 1028.1 1028.2 0.0
29/10:30am 9.8 5.0 4.6 70 2.3 NNW 19 24 10 13 1028.4 1028.5 0.0
29/10:00am 8.3 4.1 3.8 73 1.9 NNW 15 20 8 11 1028.6 1028.7 0.0
29/09:30am 7.0 3.1 3.3 77 1.6 N 13 17 7 9 1028.7 1028.8 0.0
29/09:00am 6.1 3.5 4.1 87 0.8 NNE 7 9 4 5 1028.6 1028.7 0.2
29/08:30am 4.2 1.4 2.9 91 0.5 NNE 7 9 4 5 1028.5 1028.6 0.2
29/08:00am 3.1 -0.3 2.1 93 0.4 NNE 9 11 5 6 1028.3 1028.4 0.0
29/07:30am 2.6 -0.8 1.6 93 0.4 N 9 11 5 6 1028.2 1028.3 0.0
29/07:00am 2.2 -1.3 1.2 93 0.4 N 9 11 5 6 1028.1 1028.2 0.0
29/06:30am 2.7 -0.3 1.7 93 0.4 N 7 9 4 5 1027.8 1027.9 0.0
29/06:00am 2.6 -0.5 1.6 93 0.4 N 7 7 4 4 1027.5 1027.6 0.0
29/05:30am 3.0 0.0 2.0 93 0.4 N 7 9 4 5 1027.5 1027.6 0.0
29/05:00am 2.7 -0.3 1.7 93 0.4 N 7 9 4 5 1027.6 1027.7 0.0
29/04:30am 2.7 -0.7 1.7 93 0.4 N 9 11 5 6 1027.5 1027.6 0.0
29/04:00am 3.0 0.5 1.8 92 0.5 N 4 6 2 3 1027.4 1027.5 0.0
29/03:30am 3.4 0.6 2.1 91 0.5 N 6 6 3 3 1027.5 1027.6 0.0
29/03:00am 3.7 0.8 2.4 91 0.5 N 7 7 4 4 1027.6 1027.7 0.0
29/02:30am 3.9 1.2 2.6 91 0.5 N 6 7 3 4 1027.6 1027.7 0.0
29/02:00am 4.3 1.7 3.0 91 0.5 N 6 6 3 3 1027.5 1027.6 0.0
29/01:30am 4.5 1.9 3.0 90 0.6 N 6 7 3 4 1027.6 1027.7 0.0
29/01:00am 4.8 2.0 3.3 90 0.6 N 7 7 4 4 1027.6 1027.7 0.0
29/12:30am 4.7 2.1 3.2 90 0.6 N 6 6 3 3 1027.7 1027.8 0.0
29/12:00am 4.9 2.3 3.4 90 0.6 N 6 7 3 4 1027.8 1027.9 0.0
 
Date/Time
EST
Temp
°C
App
Temp
°C
Dew
Point
°C
Rel
Hum
%
Delta-T
°C
Wind Press
QNH
hPa
Press
MSL
hPa
Rain since
9am
mm
Dir  Spd
km/h
Gust
km/h
Spd
kts
Gust
kts
28/11:30pm 4.8 1.2 3.1 89 0.7 NNW 11 13 6 7 1027.9 1028.0 0.0
28/11:00pm 5.2 2.1 3.4 88 0.7 NNW 9 11 5 6 1028.1 1028.2 0.0
28/10:30pm 5.6 2.5 3.8 88 0.8 N 9 13 5 7 1028.2 1028.3 0.0
28/10:00pm 5.8 3.2 4.0 88 0.8 N 7 9 4 5 1028.2 1028.3 0.0
28/09:30pm 6.0 3.0 4.2 88 0.8 NNW 9 11 5 6 1028.1 1028.2 0.0
28/09:00pm 6.2 3.2 4.0 86 0.9 NNW 9 11 5 6 1028.2 1028.3 0.0
28/08:30pm 6.6 3.3 4.3 85 1.0 NNW 11 11 6 6 1028.1 1028.2 0.0
28/08:00pm 7.3 4.1 5.0 85 1.0 NNW 11 13 6 7 1028.0 1028.1 0.0
28/07:30pm 7.4 4.2 5.0 85 1.1 NNW 11 13 6 7 1027.8 1027.9 0.0
28/07:00pm 8.1 4.9 5.2 82 1.3 NNW 11 15 6 8 1027.7 1027.8 0.0
28/06:30pm 9.3 6.2 5.7 78 1.6 NNW 11 13 6 7 1027.2 1027.3 0.0
28/06:00pm 9.7 6.7 6.2 79 1.6 NNW 11 13 6 7 1027.0 1027.1 0.0
28/05:30pm 11.0 7.8 6.7 75 2.0 NW 13 15 7 8 1026.8 1026.9 0.0
28/05:00pm 13.0 9.9 7.2 68 2.8 WNW 13 15 7 8 1026.6 1026.7 0.0
28/04:30pm 14.5 10.6 7.1 61 3.6 W 17 24 9 13 1026.6 1026.7 0.0
28/04:00pm 14.7 9.7 6.5 58 4.0 W 22 26 12 14 1026.4 1026.5 0.0
28/03:30pm 15.2 10.3 7.0 58 4.0 WNW 22 28 12 15 1026.3 1026.4 0.0
28/03:00pm 15.3 10.8 6.8 57 4.1 WNW 20 30 11 16 1026.2 1026.3 0.0
28/02:30pm 15.2 10.8 7.5 60 3.8 WNW 20 30 11 16 1026.0 1026.1 0.0
28/02:00pm 15.1 10.0 7.6 61 3.7 WNW 24 32 13 17 1026.2 1026.3 0.0
28/01:30pm 15.0 10.9 8.5 65 3.3 WNW 20 26 11 14 1026.3 1026.4 0.0
28/01:00pm 14.3 10.0 8.0 66 3.1 WNW 20 28 11 15 1026.4 1026.5 0.0
28/12:30pm 13.9 9.3 8.3 69 2.8 WNW 22 30 12 16 1026.7 1026.8 0.0
28/12:00pm 13.2 9.0 8.3 72 2.4 WNW 20 24 11 13 1027.0 1027.1 0.0
28/11:30am 12.4 8.7 8.1 75 2.1 WNW 17 22 9 12 1027.2 1027.3 0.0
28/11:00am 11.8 8.4 7.5 75 2.1 WNW 15 20 8 11 1027.3 1027.4 0.0
28/10:30am 11.1 8.2 8.0 81 1.5 WNW 13 15 7 8 1027.3 1027.4 0.0
28/10:00am 9.3 6.4 6.6 83 1.3 WNW 11 15 6 8 1027.1 1027.2 0.0
28/09:30am 8.0 5.2 6.9 93 0.5 WNW 11 17 6 9 1027.0 1027.1 0.0
28/09:00am 5.7 3.3 5.1 96 0.3 W 7 9 4 5 1026.8 1026.9 0.0
28/08:30am 3.7 0.9 3.0 95 0.3 W 7 9 4 5 1026.4 1026.5 0.0
28/08:00am 2.3 -1.1 1.6 95 0.3 W 9 9 5 5 1026.2 1026.3 0.0
28/07:30am 1.8 -1.7 1.1 95 0.3 W 9 11 5 6 1025.8 1025.9 0.0
28/07:00am 2.0 -1.1 1.3 95 0.3 W 7 9 4 5 1025.4 1025.5 0.0
28/06:30am 1.6 -1.6 0.9 95 0.3 W 7 9 4 5 1025.2 1025.3 0.0
28/06:00am 1.5 -2.1 0.8 95 0.3 W 9 11 5 6 1024.8 1024.9 0.0
28/05:30am 1.6 -2.0 0.9 95 0.3 W 9 9 5 5 1024.4 1024.5 0.0
28/05:00am 1.8 -1.3 1.1 95 0.3 W 7 9 4 5 1024.1 1024.2 0.0
28/04:30am 1.6 -2.0 0.9 95 0.3 W 9 9 5 5 1024.1 1024.2 0.0
28/04:19am 1.6 -2.0 0.9 95 0.3 W 9 11 5 6 1024.2 1024.3 0.0
28/04:00am 1.8 -1.7 1.1 95 0.3 W 9 9 5 5 1024.2 1024.3 0.0
28/03:30am 1.6 -1.6 0.9 95 0.3 W 7 9 4 5 1024.2 1024.3 0.0
28/03:00am 1.9 -1.6 1.2 95 0.3 W 9 9 5 5 1024.1 1024.2 0.0
28/02:30am 2.4 -1.0 1.7 95 0.3 W 9 9 5 5 1023.9 1024.0 0.0
28/02:00am 2.6 -0.8 1.9 95 0.3 W 9 9 5 5 1023.8 1023.9 0.0
28/01:30am 2.7 -0.1 2.0 95 0.3 W 6 7 3 4 1023.8 1023.9 0.0
28/01:14am 2.6 -0.3 1.7 94 0.3 W 6 7 3 4 1023.9 1024.0 0.0
28/01:00am 2.5 -0.4 1.6 94 0.3 W 6 7 3 4 1023.8 1023.9 0.0
28/12:45am 3.3 1.7 2.4 94 0.4 CALM 0 0 0 0 1023.8 1023.9 0.0
28/12:30am 3.3 0.9 2.4 94 0.4 W 4 6 2 3 1023.7 1023.8 0.0
28/12:00am 2.9 -0.1 2.0 94 0.4 W 7 9 4 5 1023.7 1023.8 0.0
 
Date/Time
EST
Temp
°C
App
Temp
°C
Dew
Point
°C
Rel
Hum
%
Delta-T
°C
Wind Press
QNH
hPa
Press
MSL
hPa
Rain since
9am
mm
Dir  Spd
km/h
Gust
km/h
Spd
kts
Gust
kts
27/11:51pm 3.2 0.2 2.3 94 0.4 W 7 7 4 4 1023.7 1023.8 0.0
27/11:30pm 3.1 0.3 2.2 94 0.4 W 6 7 3 4 1023.6 1023.7 0.0
27/11:23pm 2.9 -0.1 2.0 94 0.4 W 7 9 4 5 1023.5 1023.6 0.0
27/11:20pm 2.8 -0.2 1.9 94 0.4 W 7 9 4 5 1023.5 1023.6 0.0
27/11:00pm 3.0 0.0 2.0 93 0.4 W 7 7 4 4 1023.3 1023.4 0.0
27/10:49pm 3.3 0.5 2.3 93 0.4 W 6 7 3 4 1023.3 1023.4 0.0
27/10:30pm 3.7 0.8 2.7 93 0.4 W 7 9 4 5 1023.2 1023.3 0.0
27/10:00pm 4.4 1.3 3.4 93 0.4 W 9 11 5 6 1023.1 1023.2 0.0
27/09:55pm 4.4 1.3 3.4 93 0.4 W 9 11 5 6 1023.0 1023.1 0.0
27/09:30pm 4.2 1.0 3.0 92 0.5 W 9 9 5 5 1022.9 1023.0 0.0
27/09:00pm 4.9 1.8 3.4 90 0.6 W 9 9 5 5 1022.6 1022.7 0.0
27/08:30pm 5.9 3.0 4.4 90 0.6 WSW 9 11 5 6 1022.4 1022.5 0.0
27/08:00pm 7.5 4.5 6.0 90 0.7 WSW 11 13 6 7 1022.3 1022.4 0.0
27/07:30pm 7.6 4.1 5.6 87 0.9 W 13 15 7 8 1021.8 1021.9 0.0
27/07:00pm 8.2 6.0 6.2 87 0.9 W 7 11 4 6 1021.4 1021.5 0.0
27/06:30pm 8.7 6.1 6.2 84 1.2 W 9 11 5 6 1021.0 1021.1 0.0
27/06:00pm 10.1 5.7 6.4 78 1.7 W 19 24 10 13 1020.7 1020.8 0.0
27/05:30pm 11.2 7.9 6.3 72 2.3 W 13 17 7 9 1020.3 1020.4 0.0
27/05:00pm 12.4 8.3 6.0 65 3.0 W 17 22 9 12 1020.1 1020.2 0.0
27/04:30pm 12.6 8.3 5.3 61 3.4 W 17 20 9 11 1019.9 1020.0 0.0
27/04:00pm 12.8 8.5 5.2 60 3.5 W 17 22 9 12 1019.6 1019.7 0.0
27/03:30pm 13.1 8.4 5.0 58 3.8 W 19 24 10 13 1019.3 1019.4 0.0
27/03:00pm 13.4 8.6 5.6 59 3.7 WNW 20 28 11 15 1019.2 1019.3 0.0
27/02:30pm 13.7 8.3 4.6 54 4.2 W 22 26 12 14 1019.1 1019.2 0.0
27/02:00pm 13.6 8.9 5.3 57 3.9 WNW 19 24 10 13 1019.0 1019.1 0.0
27/01:30pm 13.0 8.5 5.9 62 3.4 WNW 19 26 10 14 1019.2 1019.3 0.0
27/01:00pm 12.7 8.1 5.6 62 3.3 WNW 19 24 10 13 1019.3 1019.4 0.0
27/12:30pm 12.2 7.7 6.3 67 2.8 WNW 19 24 10 13 1019.4 1019.5 0.0
27/12:00pm 11.5 7.3 5.8 68 2.7 NW 17 20 9 11 1019.6 1019.7 0.0
27/11:30am 10.4 5.8 5.4 71 2.3 NW 19 22 10 12 1019.9 1020.0 0.0
27/11:00am 9.8 5.5 5.2 73 2.1 WNW 17 20 9 11 1020.1 1020.2 0.0
27/10:30am 8.6 3.6 4.6 76 1.8 WNW 20 24 11 13 1020.3 1020.4 0.0
27/10:00am 8.0 3.5 4.2 77 1.7 WNW 17 20 9 11 1020.2 1020.3 0.0
27/09:30am 7.1 3.3 4.1 81 1.3 NW 13 17 7 9 1020.0 1020.1 0.0
27/09:00am 6.5 3.5 4.0 84 1.1 NNW 9 13 5 7 1019.9 1020.0 0.0
27/08:30am 6.1 2.7 3.8 85 1.0 NNW 11 15 6 8 1019.6 1019.7 0.0
27/08:00am 5.8 2.7 3.8 87 0.8 NNW 9 11 5 6 1019.4 1019.5 0.0
27/07:30am 5.6 2.5 3.8 88 0.8 NNW 9 11 5 6 1019.2 1019.3 0.0
27/07:00am 5.6 2.5 3.6 87 0.8 NNW 9 9 5 5 1019.0 1019.1 0.0
27/06:30am 5.5 2.8 3.7 88 0.8 NW 7 11 4 6 1018.9 1019.0 0.0
27/06:00am 5.5 3.8 3.8 89 0.7 NNW 2 9 1 5 1018.5 1018.6 0.0
27/05:30am 5.4 2.7 3.7 89 0.7 N 7 7 4 4 1018.3 1018.4 0.0
27/05:00am 5.4 2.7 3.7 89 0.7 N 7 9 4 5 1017.8 1018.0 0.0
27/04:30am 5.5 2.8 3.7 88 0.8 N 7 9 4 5 1017.7 1017.9 0.0
27/04:00am 5.6 2.5 3.8 88 0.8 N 9 11 5 6 1017.8 1018.0 0.0
27/03:30am 5.5 2.4 3.8 89 0.7 N 9 11 5 6 1018.0 1018.2 0.0
27/03:00am 5.5 2.9 4.0 90 0.6 NNW 7 9 4 5 1017.9 1018.1 0.0
27/02:30am 5.5 3.0 4.0 90 0.6 NNW 6 9 3 5 1017.9 1018.1 0.0
27/02:00am 5.5 3.0 4.0 90 0.6 NW 6 7 3 4 1017.9 1018.1 0.0
27/01:30am 5.5 2.4 3.8 89 0.7 NW 9 9 5 5 1017.8 1018.0 0.0
27/01:00am 5.6 2.5 3.8 88 0.8 NNW 9 9 5 5 1017.9 1018.1 0.0
27/12:30am 5.8 2.7 3.6 86 0.9 N 9 11 5 6 1017.8 1018.0 0.0
27/12:00am 5.5 2.1 3.8 89 0.7 N 11 13 6 7 1017.8 1018.0 0.0
 
Date/Time
EST
Temp
°C
App
Temp
°C
Dew
Point
°C
Rel
Hum
%
Delta-T
°C
Wind Press
QNH
hPa
Press
MSL
hPa
Rain since
9am
mm
Dir  Spd
km/h
Gust
km/h
Spd
kts
Gust
kts
26/11:30pm 5.1 2.0 3.6 90 0.6 NNW 9 11 5 6 1017.9 1018.1 0.0
26/11:00pm 4.8 1.6 3.1 89 0.7 NNW 9 9 5 5 1018.2 1018.3 0.0

Other Formats:

Comma delimited format used in spreadsheet applications
http://www.bom.gov.au/fwo/IDV60801/IDV60801.94843.axf

JavaScript Object Notation format (JSON) in row-major order
http://www.bom.gov.au/fwo/IDV60801/IDV60801.94843.json